Αναφορές METAR από Ελληνικά Αεροδρόμια

Σε αυτή τη σελίδα, μπορείτε να παρακολουθείτε τις αναφορές METAR που προέρχονται από τα κυριότερα αεροδρόμια της Ελλάδας. Το περιεχόμενο αποκωδικοποιείται, οπτικοποιείται και γίνεται κατανοητό από τον καθένα με τη χρήση του όμορφου δίγλωσσου γραφικού περιβάλλοντος του meteothes.gr!

Η αρχική κωδικοποιημένη αναφορά, συμπεριλαμβάνεται επίσης στο κάτω μέρος. Σε όποια καθεστερεί η ενημέρωση, το προειδοποιητικό μήνυμα "Μη ενημερωμένο METAR!" εμφανίζεται στο πάνω μέρος της με κόκκινα γράμματα.

Εχουν προστεθεί επίσης δύο αεροδρόμια από γειτονικές χώρες, την Οχρίδα(ΠΓΔΜ) και την Σόφια(Βουλγαρία) για να ελέγχουμε την εξέλιξη των ψυχρών εισβολών από τα Βόρεια!

LGTS - Thessaloniki/Makedonia-Elev 7m
Απόσταση από meteothes.gr: Ν 13km
Ενημερώθηκε: 17/11/2019 23:20
Κυρίως νεφελώδης
Κυρίως νεφελώδης
 Ανεμος από μεταβλητός
Ανεμος: μεταβλητός 4 km/h
Θερμοκρασία: 15°C
Σημ. Δρόσου: 14°C
Υγρασία: 94%
Βαρόμετρο: 1019 hPa
Νέφωση: Κυρίως νεφελώδης
Ορατότητα: 7 km
Λεπτομέρειες Νεφών: Μερικώς νεφελώδης 244 m
Διάσπαρτα Nέφη 549 m
Κυρίως νεφελώδης 762 m
2019/11/17 21:20 LGTS 172120Z VRB02KT 7000 SCT008 FEW018TCU BKN025 15/14 Q1019 NOSIG
LGAV - Athens/Elef. Venizelos-Elev 94m
Απόσταση από meteothes.gr: ΝΝΑ 312km
Ενημερώθηκε: 17/11/2019 23:20
Μερικώς νεφελώδης
Μερικώς νεφελώδης
 Ανεμος από μεταβλητός
Ανεμος: μεταβλητός 2 km/h
Θερμοκρασία: 16°C
Σημ. Δρόσου: 15°C
Υγρασία: 94%
Βαρόμετρο: 1018 hPa
Νέφωση: Μερικώς νεφελώδης
Ορατότητα: 10 km
Λεπτομέρειες Νεφών: Μερικώς νεφελώδης 549 m
Μερικώς νεφελώδης 2134 m
2019/11/17 21:20 LGAV 172120Z VRB01KT 9999 SCT018 SCT070 16/15 Q1018 NOSIG
 
LGAL - Alexandroupolis-Elev 3m
Απόσταση από meteothes.gr: Α 251km
Ενημερώθηκε: 17/11/2019 22:20
ΜΗ Ενημερωμένο METAR!
Διάσπαρτα Nέφη
Διάσπαρτα Nέφη
 Ανεμος από ΒΒΑ
Ανεμος: ΒΒΑ 7 km/h
Θερμοκρασία: 14°C
Σημ. Δρόσου: 12°C
Υγρασία: 88%
Βαρόμετρο: 1019 hPa
Νέφωση: Διάσπαρτα Nέφη
Ορατότητα: 10 km
Λεπτομέρειες Νεφών: Διάσπαρτα Nέφη 762 m
2019/11/17 20:20 LGAL 172020Z 03004KT 9999 FEW025 14/12 Q1019
LGKV - Kavala/Crysoupolis-Elev 5m
Απόσταση από meteothes.gr: ΑΒΑ 144km
Ενημερώθηκε: 17/11/2019 22:50
Διάσπαρτα Nέφη
Διάσπαρτα Nέφη
 Ανεμος από ΑΒΑ
Ανεμος: ΑΒΑ 9 km/h
Θερμοκρασία: 13°C
Σημ. Δρόσου: 11°C
Υγρασία: 88%
Βαρόμετρο: 1018 hPa
Νέφωση: Διάσπαρτα Nέφη
Ορατότητα: 10 km
Λεπτομέρειες Νεφών: Διάσπαρτα Nέφη 610 m
2019/11/17 20:50 LGKV 172050Z 06005KT 9999 FEW020 13/11 Q1018
 
LGSK - Skiathos Island-Elev 15m
Απόσταση από meteothes.gr: ΝΝΑ 168km
Ενημερώθηκε: 17/11/2019 16:50
ΜΗ Ενημερωμένο METAR!
Κυρίως νεφελώδης
Κυρίως νεφελώδης
 Ανεμος από μεταβλητός
Ανεμος: μεταβλητός 6 km/h
Θερμοκρασία: 19°C
Σημ. Δρόσου: 14°C
Υγρασία: 73%
Βαρόμετρο: 1017 hPa
Νέφωση: Κυρίως νεφελώδης
Ορατότητα: 8 km
Λεπτομέρειες Νεφών: Διάσπαρτα Nέφη 305 m
Κυρίως νεφελώδης 762 m
2019/11/17 14:50 LGSK 171450Z VRB03KT 8000 FEW010 BKN025 19/14 Q1017
LGLM - Limnos Island-Elev 5m
Απόσταση από meteothes.gr: ΑΝΑ 210km
Ενημερώθηκε: 17/11/2019 22:50
Διάσπαρτα Nέφη
Διάσπαρτα Nέφη
 Ανεμος από άπνοια
Ανεμος: άπνοια
Θερμοκρασία: 15°C
Σημ. Δρόσου: 13°C
Υγρασία: 88%
Βαρόμετρο: 1017 hPa
Νέφωση: Διάσπαρτα Nέφη
Ορατότητα: 10 km
Λεπτομέρειες Νεφών: Διάσπαρτα Nέφη 549 m
2019/11/17 20:50 LGLM 172050Z 00000KT 9999 FEW018 15/13 Q1017
 
LGMT - Mitilini Island-Elev 17m
Απόσταση από meteothes.gr: ΑΝΑ 358km
Ενημερώθηκε: 17/11/2019 22:20
ΜΗ Ενημερωμένο METAR!
Αίθριος
Αίθριος
 Ανεμος από μεταβλητός
Ανεμος: μεταβλητός 6 km/h
Θερμοκρασία: 16°C
Σημ. Δρόσου: 12°C
Υγρασία: 77%
Βαρόμετρο: 1019 hPa
Συνθήκες: Αίθριος
Ορατότητα: πάνω από 10 km
2019/11/17 20:20 LGMT 172020Z VRB03KT CAVOK 16/12 Q1019
LGSY - Skiros Island-Elev 15m
Απόσταση από meteothes.gr: ΝΑ 227km
Ενημερώθηκε: 17/11/2019 22:50
Διάσπαρτα Nέφη
Διάσπαρτα Nέφη
 Ανεμος από άπνοια
Ανεμος: άπνοια
Θερμοκρασία: 16°C
Σημ. Δρόσου: 15°C
Υγρασία: 94%
Βαρόμετρο: 1018 hPa
Νέφωση: Διάσπαρτα Nέφη
Ορατότητα: 7 km
Λεπτομέρειες Νεφών: Διάσπαρτα Nέφη 366 m
2019/11/17 20:50 LGSY 172050Z 00000KT 7000 FEW012 16/15 Q1018 RMK FEW018 BKN180 WHT
 
LGKZ - Kozani-Elev 628m
Απόσταση από meteothes.gr: ΔΝΔ 102km
Ενημερώθηκε: 17/11/2019 22:20
ΜΗ Ενημερωμένο METAR!

 Ανεμος από μεταβλητός
Ανεμος: μεταβλητός 2 km/h
Θερμοκρασία: 9°C
Σημ. Δρόσου: 9°C
Υγρασία: 100%
Βαρόμετρο: 1018 hPa
2019/11/17 20:20 LGKZ 172020Z AUTO VRB01KT //// // ////// 09/09 Q1018 RE//
LGIO - Ioannina-Elev 476m
Απόσταση από meteothes.gr: ΔΝΔ 209km
Ενημερώθηκε: 17/11/2019 23:20
Ασθενής βροχή
Ασθενής βροχή
 Ανεμος από ΝΝΑ
Ανεμος: ΝΝΑ 13 km/h
Θερμοκρασία: 14°C
Σημ. Δρόσου: 9°C
Υγρασία: 72%
Βαρόμετρο: 1016 hPa
Συνθήκες: Ασθενής βροχή
2019/11/17 21:20 LGIO 172120Z AUTO 15007KT 120V200 //// -RA ////// 14/09 Q1016 RE//
 
LGZA - Zakinthos-Elev 3m
Απόσταση από meteothes.gr: ΝΝΔ 367km
Ενημερώθηκε: 17/11/2019 19:50
ΜΗ Ενημερωμένο METAR!
Κυρίως νεφελώδης
Κυρίως νεφελώδης
 Ανεμος από ΝΑ
Ανεμος: ΝΑ 28 km/h
Θερμοκρασία: 20°C
Σημ. Δρόσου: 14°C
Υγρασία: 69%
Βαρόμετρο: 1015 hPa
Νέφωση: Κυρίως νεφελώδης
Ορατότητα: 10 km
Λεπτομέρειες Νεφών: Διάσπαρτα Nέφη 549 m
Μερικώς νεφελώδης 610 m
Κυρίως νεφελώδης 2134 m
2019/11/17 17:50 LGZA 171750Z 14015KT 9999 FEW018TCU SCT020 BKN070 20/14 Q1015
LGKR - Corfu Island-Elev 2m
Απόσταση από meteothes.gr: ΔΝΔ 282km
Ενημερώθηκε: 17/11/2019 23:20
Light thunderstorm, Βροχή, Συννεφιά
Light thunderstorm, Βροχή, Συννεφιά
 Ανεμος από ΝΑ
Ανεμος: ΝΑ 7 km/h
Θερμοκρασία: 16°C
Σημ. Δρόσου: 14°C
Υγρασία: 88%
Βαρόμετρο: 1013 hPa
Συνθήκες: Light thunderstorm, Βροχή
Νέφωση: Συννεφιά
Ορατότητα: 10 km
Λεπτομέρειες Νεφών: Μερικώς νεφελώδης 305 m
Διάσπαρτα Nέφη 488 m
Κυρίως νεφελώδης 762 m
Συννεφιά 2134 m
2019/11/17 21:20 LGKR 172120Z 13004KT 9999 -TSRA SCT010 FEW016CB BKN025 OVC070 16/14 Q1013 TEMPO 5000 TSRA
 
LGSO - Syros Island-Elev 72m
Απόσταση από meteothes.gr: ΝΝΑ 397km
Ενημερώθηκε: 17/11/2019 23:20

 Ανεμος από μεταβλητός
Ανεμος: μεταβλητός 6 km/h
Θερμοκρασία: 19°C
Σημ. Δρόσου: 16°C
Υγρασία: 83%
Βαρόμετρο: 1018 hPa
2019/11/17 21:20 LGSO 172120Z AUTO VRB03KT //// // ////// 19/16 Q1018 RE//
LGMK - Mikonos Island-Elev 123m
Απόσταση από meteothes.gr: ΝΝΑ 412km
Ενημερώθηκε: 17/11/2019 19:50
ΜΗ Ενημερωμένο METAR!
Διάσπαρτα Nέφη
Διάσπαρτα Nέφη
 Ανεμος από μεταβλητός
Ανεμος: μεταβλητός 6 km/h
Θερμοκρασία: 17°C
Σημ. Δρόσου: 12°C
Υγρασία: 73%
Βαρόμετρο: 1017 hPa
Νέφωση: Διάσπαρτα Nέφη
Ορατότητα: 8 km
Λεπτομέρειες Νεφών: Διάσπαρτα Nέφη 244 m
2019/11/17 17:50 LGMK 171750Z VRB03KT 8000 FEW008 17/12 Q1017
 
LGSR - Santorini Island-Elev 40m
Απόσταση από meteothes.gr: ΝΝΑ 520km
Ενημερώθηκε: 17/11/2019 21:20
ΜΗ Ενημερωμένο METAR!
Διάσπαρτα Nέφη
Διάσπαρτα Nέφη
 Ανεμος από ΑΝΑ
Ανεμος: ΑΝΑ 11 km/h
Θερμοκρασία: 20°C
Σημ. Δρόσου: 17°C
Υγρασία: 83%
Βαρόμετρο: 1017 hPa
Νέφωση: Διάσπαρτα Nέφη
Ορατότητα: 10 km
Λεπτομέρειες Νεφών: Διάσπαρτα Nέφη 549 m
2019/11/17 19:20 LGSR 171920Z 12006KT 9999 FEW018 20/17 Q1017
LGKL - Kalamata-Elev 8m
Απόσταση από meteothes.gr: Ν 405km
Ενημερώθηκε: 17/11/2019 23:20
Ασθενής βροχή
Ασθενής βροχή
 Ανεμος από Β
Ανεμος: Β 7 km/h
Θερμοκρασία: 15°C
Σημ. Δρόσου: 12°C
Υγρασία: 82%
Βαρόμετρο: 1016 hPa
Συνθήκες: Ασθενής βροχή
2019/11/17 21:20 LGKL 172120Z AUTO 36004KT 320V030 //// -RA ////// 15/12 Q1016 RE//
 
LGIR - Iraklion/Crete-Elev 5m
Απόσταση από meteothes.gr: ΝΝΑ 622km
Ενημερώθηκε: 17/11/2019 23:20
Μερικώς νεφελώδης
Μερικώς νεφελώδης
 Ανεμος από Ν
Ανεμος: Ν 9 km/h
Θερμοκρασία: 16°C
Σημ. Δρόσου: 14°C
Υγρασία: 88%
Βαρόμετρο: 1016 hPa
Νέφωση: Μερικώς νεφελώδης
Ορατότητα: 10 km
Λεπτομέρειες Νεφών: Διάσπαρτα Nέφη 762 m
Μερικώς νεφελώδης 2438 m
2019/11/17 21:20 LGIR 172120Z 18005KT 9999 FEW025 SCT080 16/14 Q1016 NOSIG
LGRP - Rhodes-Elev 5m
Απόσταση από meteothes.gr: ΝΑ 649km
Ενημερώθηκε: 17/11/2019 23:20
Διάσπαρτα Nέφη
Διάσπαρτα Nέφη
 Ανεμος από Α
Ανεμος: Α 9 km/h
Θερμοκρασία: 21°C
Σημ. Δρόσου: 16°C
Υγρασία: 73%
Βαρόμετρο: 1018 hPa
Νέφωση: Διάσπαρτα Nέφη
Ορατότητα: 10 km
Λεπτομέρειες Νεφών: Διάσπαρτα Nέφη 610 m
2019/11/17 21:20 LGRP 172120Z 09005KT 030V150 9999 FEW020 21/16 Q1018 NOSIG
 
LWOH - Ohrid/FYROM-Elev 761m
Απόσταση από meteothes.gr: ΔΒΔ 188km
Ενημερώθηκε: 17/11/2019 22:00
ΜΗ Ενημερωμένο METAR!
Κυρίως νεφελώδης
Κυρίως νεφελώδης
 Ανεμος από ΒΑ
Ανεμος: ΒΑ 4 km/h
Θερμοκρασία: 11°C
Σημ. Δρόσου: 6°C
Υγρασία: 72%
Βαρόμετρο: 1017 hPa
Νέφωση: Κυρίως νεφελώδης
Ορατότητα: 10 km
Λεπτομέρειες Νεφών: Κυρίως νεφελώδης 1524 m
2019/11/17 20:00 LWOH 172000Z 04002KT 9999 BKN050 11/06 Q1017
LBSF - Sofia/Bulgaria-Elev 595m
Απόσταση από meteothes.gr: Β 227km
Ενημερώθηκε: 17/11/2019 23:30
Συννεφιά
Συννεφιά
 Ανεμος από Α
Ανεμος: Α 6 km/h
Θερμοκρασία: 12°C
Σημ. Δρόσου: 10°C
Υγρασία: 88%
Βαρόμετρο: 1018 hPa
Νέφωση: Συννεφιά
Ορατότητα: 10 km
Λεπτομέρειες Νεφών: Συννεφιά 457 m
2019/11/17 21:30 LBSF 172130Z 09003KT 050V130 9999 OVC015 12/10 Q1018 NOSIG

(*) Μερικές αναφορές παρουσιάζουν λιγότερα στοιχεία γιατί οι αρχικές είναι ελλιπείς ή έχουν λάθος μορφοποίηση!

Please disable your adblock and script blockers to view this page